Řízení letového provozu České republiky
Letiste: LKNA Aktualizace: 26.05.2019 23:00:25  UTC
 METAR LKNA 26.05. 23:00 ...
METAR LKNA 262300Z 19003KT CAVOK 15/11 Q1013 RMK BLU=
 TAF LKNA 26.05. 17:00 ...
TAF LKNA 261700Z 2618/2718 VRB02KT CAVOK      BECMG 2708/2710 14008KT      PROB40 TEMPO 2712/2718 16012G22KT 7000 SHRA SCT040TCU      BECMG 2716/2718 BKN030=